Time;durP1;ratioP1;P1;durP2;ratioP2;P2;SDS_P1;SDS_P2;PMS_P1;PMS_P2;Temp;Humidity;BMP_temperature;BMP_pressure;BME280_temperature;BME280_humidity;BME280_pressure;Samples;Min_cycle;Max_cycle;Signal;HPM_P1;HPM_P2
2022/01/13 00:00:51;;;;;;;30.70;11.75;;;;;;;21.03;14.04;99867.88;4974378;28;20039;-79
2022/01/13 00:03:17;;;;;;;28.45;13.32;;;;;;;21.11;13.96;99854.91;4974285;28;20078;-80
2022/01/13 00:05:43;;;;;;;35.60;13.07;;;;;;;21.13;14.11;99839.38;4973661;28;20027;-80
2022/01/13 00:08:10;;;;;;;26.90;10.50;;;;;;;20.68;14.29;99842.88;4969522;28;20035;-80
2022/01/13 00:10:36;;;;;;;29.48;11.68;;;;;;;21.09;14.26;99846.91;4972751;28;20090;-80
2022/01/13 00:13:06;;;;;;;29.30;12.80;;;;;;;21.24;14.26;99840.38;4989207;28;20027;-80
2022/01/13 00:15:46;;;;;;;24.33;9.60;;;;;;;21.42;14.06;99835.09;4969024;28;20035;-80
2022/01/13 00:18:15;;;;;;;29.60;11.75;;;;;;;21.58;14.15;99835.75;4968418;28;20055;-80
2022/01/13 00:26:16;;;;;;;32.35;13.15;;;;;;;21.90;13.93;99841.88;4971741;28;20051;-81
2022/01/13 00:28:45;;;;;;;26.20;11.38;;;;;;;22.31;13.76;99840.06;4971376;28;20057;-80
2022/01/13 00:31:12;;;;;;;26.65;10.90;;;;;;;22.25;13.70;99825.59;4970149;28;20035;-80
2022/01/13 00:33:44;;;;;;;23.55;10.63;;;;;;;22.19;13.99;99835.50;4976300;28;20045;-81
2022/01/13 00:36:10;;;;;;;27.02;11.18;;;;;;;22.37;13.67;99835.72;4972366;28;20117;-81
2022/01/13 00:38:36;;;;;;;22.25;9.75;;;;;;;22.42;13.83;99841.00;4972915;28;20027;-81
2022/01/13 00:41:02;;;;;;;22.23;8.98;;;;;;;22.35;14.13;99841.72;4969070;28;20070;-81
2022/01/13 00:43:28;;;;;;;20.52;9.38;;;;;;;22.10;14.21;99840.56;4973477;28;20474;-81
2022/01/13 00:45:54;;;;;;;23.65;9.80;;;;;;;22.15;14.40;99842.25;4972218;28;20511;-80
2022/01/13 00:48:20;;;;;;;27.05;9.77;;;;;;;22.27;14.24;99853.19;4972651;28;20031;-80
2022/01/13 00:50:47;;;;;;;23.73;9.18;;;;;;;22.09;14.44;99850.16;4971011;28;20035;-80
2022/01/13 00:53:13;;;;;;;18.65;8.23;;;;;;;21.87;14.78;99848.19;4970819;28;20035;-80
2022/01/13 00:55:57;;;;;;;19.13;8.25;;;;;;;22.23;14.59;99844.75;4968097;28;20093;-81
2022/01/13 00:58:26;;;;;;;23.52;9.63;;;;;;;22.23;14.72;99833.56;4972891;28;20039;-81
2022/01/13 01:00:52;;;;;;;22.15;9.20;;;;;;;22.25;14.58;99830.38;4970161;28;20039;-81
2022/01/13 01:03:19;;;;;;;19.75;8.85;;;;;;;22.05;14.81;99832.50;4968083;28;20050;-81
2022/01/13 01:05:45;;;;;;;17.45;8.20;;;;;;;21.73;15.18;99845.16;4970383;28;20039;-81
2022/01/13 01:08:12;;;;;;;23.67;9.63;;;;;;;21.16;15.78;99862.97;4971184;28;20031;-81
2022/01/13 01:10:38;;;;;;;22.90;9.38;;;;;;;20.43;16.53;99863.91;4971959;28;20038;-81
2022/01/13 01:13:13;;;;;;;24.25;10.70;;;;;;;20.78;16.45;99865.78;4966227;28;20094;-81
2022/01/13 01:15:44;;;;;;;22.92;9.80;;;;;;;21.15;16.04;99876.13;4977709;28;20117;-81
2022/01/13 01:18:30;;;;;;;18.80;8.75;;;;;;;21.58;15.85;99869.31;4968185;28;20047;-80
2022/01/13 01:23:29;;;;;;;19.00;7.88;;;;;;;22.10;15.64;99887.31;4972260;28;20047;-81
2022/01/13 01:26:19;;;;;;;21.77;9.07;;;;;;;21.12;16.93;99876.84;4970931;28;20023;-80
2022/01/13 01:28:50;;;;;;;20.58;7.63;;;;;;;21.35;16.62;99863.69;4972273;28;20035;-81
2022/01/13 01:31:18;;;;;;;16.33;7.53;;;;;;;21.73;16.35;99864.72;4970652;28;20030;-81
2022/01/13 01:33:56;;;;;;;17.80;7.75;;;;;;;21.75;16.49;99867.97;4972390;28;20043;-81
2022/01/13 01:36:23;;;;;;;24.90;9.43;;;;;;;20.52;17.92;99866.47;4970701;28;20027;-81
2022/01/13 01:38:52;;;;;;;19.92;9.00;;;;;;;19.75;18.76;99869.09;4967787;28;20039;-81
2022/01/13 01:41:18;;;;;;;17.80;8.15;;;;;;;19.66;19.16;99876.03;4974275;28;20089;-81
2022/01/13 01:43:46;;;;;;;21.77;10.15;;;;;;;18.91;20.25;99886.34;4974679;28;20506;-80
2022/01/13 01:46:12;;;;;;;18.33;9.25;;;;;;;18.44;20.70;99883.38;4975665;28;20031;-80
2022/01/13 01:48:38;;;;;;;24.15;10.88;;;;;;;18.46;20.65;99875.56;4972472;28;20033;-80
2022/01/13 01:51:04;;;;;;;18.42;9.55;;;;;;;18.73;20.77;99873.91;4970052;28;20046;-80
2022/01/13 01:53:31;;;;;;;22.40;9.35;;;;;;;18.78;21.03;99862.53;4974491;28;20019;-80
2022/01/13 01:55:57;;;;;;;19.55;8.07;;;;;;;19.01;20.56;99852.44;4975579;28;20121;-80
2022/01/13 01:58:28;;;;;;;22.50;8.80;;;;;;;19.08;20.21;99859.00;4974615;28;20045;-80
2022/01/13 02:00:55;;;;;;;26.52;10.73;;;;;;;18.53;21.09;99864.59;4975149;28;20097;-80
2022/01/13 02:03:24;;;;;;;18.80;9.75;;;;;;;18.32;21.85;99859.19;4970834;28;20171;-80
2022/01/13 02:05:50;;;;;;;22.77;9.82;;;;;;;18.08;22.12;99859.28;4974064;28;20491;-80
2022/01/13 02:08:16;;;;;;;27.23;10.98;;;;;;;18.53;21.69;99868.19;4974417;28;20102;-80
2022/01/13 02:10:45;;;;;;;23.63;10.52;;;;;;;18.04;22.37;99866.69;4974810;28;20082;-80
2022/01/13 02:13:13;;;;;;;27.60;11.40;;;;;;;17.19;23.44;99855.59;4971719;28;20030;-80
2022/01/13 02:18:24;;;;;;;22.15;9.52;;;;;;;19.25;21.26;99847.50;4974164;28;20113;-81
2022/01/13 02:20:53;;;;;;;28.35;12.70;;;;;;;18.70;21.64;99850.41;4973482;28;20038;-80
2022/01/13 02:23:30;;;;;;;21.63;9.73;;;;;;;18.34;22.26;99856.09;4973327;28;20042;-80
2022/01/13 02:25:56;;;;;;;25.10;10.30;;;;;;;18.48;22.05;99873.22;4973058;28;20030;-80
2022/01/13 02:28:22;;;;;;;29.70;12.95;;;;;;;18.60;21.60;99892.63;4973896;28;20113;-80
2022/01/13 02:30:48;;;;;;;21.05;9.63;;;;;;;18.44;22.25;99883.38;4972120;28;20070;-80
2022/01/13 02:33:14;;;;;;;29.38;13.15;;;;;;;18.47;22.11;99868.81;4971628;28;20133;-80
2022/01/13 02:35:40;;;;;;;27.48;11.88;;;;;;;18.29;22.45;99864.69;4973754;28;20106;-80
2022/01/13 02:38:11;;;;;;;30.90;11.88;;;;;;;18.81;21.92;99859.06;4974550;28;20054;-80
2022/01/13 02:40:37;;;;;;;22.25;11.13;;;;;;;18.59;22.57;99841.78;4973214;28;20051;-80
2022/01/13 02:43:04;;;;;;;20.95;10.07;;;;;;;18.88;21.80;99823.84;4973585;28;20061;-80
2022/01/13 02:45:35;;;;;;;26.80;11.27;;;;;;;18.96;21.98;99816.50;4974121;28;20069;-80
2022/01/13 02:48:27;;;;;;;18.25;9.13;;;;;;;19.50;21.58;99814.75;4971262;28;20054;-80
2022/01/13 02:50:54;;;;;;;25.13;9.48;;;;;;;19.29;21.57;99803.06;4972563;28;20151;-80
2022/01/13 02:53:21;;;;;;;17.63;8.75;;;;;;;19.98;20.84;99793.94;4971293;28;20039;-80
2022/01/13 02:55:47;;;;;;;22.75;10.98;;;;;;;18.74;22.35;99784.53;4973307;28;20054;-81
2022/01/13 02:58:15;;;;;;;18.30;8.25;;;;;;;18.46;22.54;99783.78;4973533;28;20521;-81
2022/01/13 03:00:42;;;;;;;15.70;8.10;;;;;;;17.92;23.62;99803.59;4972595;28;20031;-81
2022/01/13 03:03:08;;;;;;;23.70;9.85;;;;;;;18.35;23.04;99821.53;4980138;28;20081;-81
2022/01/13 03:05:38;;;;;;;21.30;9.60;;;;;;;17.77;23.93;99815.47;4974162;28;20038;-80
2022/01/13 03:08:06;;;;;;;17.42;8.55;;;;;;;19.00;22.57;99818.22;4972448;28;20038;-81
2022/01/13 03:10:32;;;;;;;14.23;7.43;;;;;;;18.36;22.81;99829.56;4970301;28;20111;-81
2022/01/13 03:13:00;;;;;;;20.25;9.35;;;;;;;18.64;22.81;99840.69;4974061;28;20027;-81
2022/01/13 03:15:26;;;;;;;22.92;10.07;;;;;;;18.13;23.24;99839.59;4973231;28;20066;-81
2022/01/13 03:17:52;;;;;;;11.55;6.15;;;;;;;16.95;24.38;99851.94;4973015;28;20494;-81
2022/01/13 03:20:18;;;;;;;18.95;8.63;;;;;;;18.42;23.26;99850.38;4971995;28;20101;-81
2022/01/13 03:22:44;;;;;;;21.33;9.50;;;;;;;18.64;22.47;99849.06;4971434;28;20042;-81
2022/01/13 03:25:12;;;;;;;16.90;7.25;;;;;;;18.06;23.24;99847.72;4972558;28;20039;-81
2022/01/13 03:27:40;;;;;;;17.83;8.45;;;;;;;17.72;23.65;99839.88;4969240;28;20077;-80
2022/01/13 03:30:09;;;;;;;18.55;9.07;;;;;;;17.54;24.07;99838.50;4968828;28;20129;-81
2022/01/13 03:32:36;;;;;;;16.52;7.53;;;;;;;18.80;22.75;99841.53;4973620;28;20031;-81
2022/01/13 03:35:04;;;;;;;15.95;7.35;;;;;;;18.37;22.90;99831.16;4972283;28;20042;-81
2022/01/13 03:37:31;;;;;;;14.05;6.78;;;;;;;18.78;22.67;99829.16;4968437;28;20070;-81
2022/01/13 03:39:58;;;;;;;14.50;6.65;;;;;;;19.13;22.30;99814.22;4966993;28;20086;-80
2022/01/13 03:42:25;;;;;;;14.98;7.45;;;;;;;19.38;21.80;99809.28;4972505;28;20062;-80
2022/01/13 03:44:51;;;;;;;14.05;6.85;;;;;;;19.33;21.71;99815.09;4972928;28;20180;-80
2022/01/13 03:47:17;;;;;;;14.88;7.38;;;;;;;19.33;21.97;99820.66;4970487;28;20031;-80
2022/01/13 03:49:43;;;;;;;15.50;7.57;;;;;;;19.99;21.30;99799.19;4969935;28;20063;-80
2022/01/13 03:52:18;;;;;;;14.05;7.40;;;;;;;19.85;21.22;99798.03;4967851;28;20042;-80
2022/01/13 03:55:22;;;;;;;14.25;6.78;;;;;;;21.12;19.98;99804.25;4969655;28;20503;-80
2022/01/13 03:58:25;;;;;;;14.20;6.68;;;;;;;20.82;20.12;99792.09;4970326;28;20031;-80
2022/01/13 04:01:09;;;;;;;14.75;5.90;;;;;;;20.37;20.71;99806.78;4971284;28;20109;-80
2022/01/13 04:03:36;;;;;;;14.60;6.25;;;;;;;19.28;22.21;99818.13;4970969;28;20039;-80
2022/01/13 04:06:11;;;;;;;13.73;6.20;;;;;;;19.50;21.69;99816.72;4973110;28;20026;-80
2022/01/13 04:08:38;;;;;;;13.65;6.95;;;;;;;18.55;22.90;99826.16;4969728;28;20053;-80
2022/01/13 04:11:04;;;;;;;12.40;5.90;;;;;;;19.96;21.40;99830.56;4963942;28;20034;-80
2022/01/13 04:16:14;;;;;;;16.33;7.05;;;;;;;19.44;21.34;99826.53;4972217;28;20129;-80
2022/01/13 04:18:40;;;;;;;15.07;7.05;;;;;;;19.21;22.44;99829.91;4970296;28;20035;-80
2022/01/13 04:21:07;;;;;;;18.45;8.05;;;;;;;18.03;23.43;99817.03;4966685;28;20043;-80
2022/01/13 04:23:33;;;;;;;14.88;7.55;;;;;;;18.53;22.71;99823.69;4988088;28;20405;-80
2022/01/13 04:26:00;;;;;;;16.70;8.15;;;;;;;18.39;23.50;99817.69;4965440;28;20043;-80
2022/01/13 04:28:28;;;;;;;16.40;6.78;;;;;;;19.19;22.43;99823.06;4969295;28;20104;-80
2022/01/13 04:31:00;;;;;;;11.57;6.38;;;;;;;19.89;21.40;99810.06;4966407;28;20041;-80
2022/01/13 04:33:37;;;;;;;12.77;6.15;;;;;;;18.11;23.60;99818.88;4969582;28;20042;-80
2022/01/13 04:36:06;;;;;;;14.25;6.90;;;;;;;18.25;23.50;99816.50;4964025;28;20049;-80
2022/01/13 04:38:32;;;;;;;13.73;6.03;;;;;;;17.58;24.49;99809.69;4967958;28;20553;-80
2022/01/13 04:41:00;;;;;;;13.00;5.22;;;;;;;18.43;23.47;99812.25;4968518;28;20039;-80
2022/01/13 04:43:29;;;;;;;12.13;5.82;;;;;;;17.56;24.13;99816.75;4962446;28;20085;-80
2022/01/13 04:45:56;;;;;;;11.63;5.78;;;;;;;18.68;23.08;99813.78;4977385;28;20036;-80
2022/01/13 04:48:24;;;;;;;16.30;7.28;;;;;;;18.17;23.48;99801.59;4969237;28;20049;-80
2022/01/13 04:50:50;;;;;;;15.15;7.55;;;;;;;18.58;23.23;99800.38;4968031;28;20143;-80
2022/01/13 04:53:16;;;;;;;13.75;6.63;;;;;;;17.99;24.01;99802.22;4967980;28;20047;-80
2022/01/13 04:55:57;;;;;;;12.90;5.72;;;;;;;18.07;23.69;99804.84;4970676;28;20023;-80
2022/01/13 04:58:23;;;;;;;15.43;7.00;;;;;;;17.92;23.89;99802.81;4970867;28;20040;-80
2022/01/13 05:00:49;;;;;;;15.88;6.97;;;;;;;18.51;23.52;99806.56;4967521;28;20031;-80
2022/01/13 05:03:16;;;;;;;18.20;8.68;;;;;;;17.79;24.41;99815.91;4972840;28;20030;-80
2022/01/13 05:05:42;;;;;;;13.75;7.22;;;;;;;17.28;24.73;99803.53;4972436;28;20038;-80
2022/01/13 05:08:08;;;;;;;17.70;7.80;;;;;;;17.98;23.80;99806.13;4970905;28;20074;-81
2022/01/13 05:10:34;;;;;;;15.45;7.03;;;;;;;17.94;24.48;99811.59;4968631;28;20082;-80
2022/01/13 05:13:00;;;;;;;18.10;8.07;;;;;;;18.33;23.41;99823.88;4967462;28;20062;-81
2022/01/13 05:15:27;;;;;;;20.25;7.53;;;;;;;17.47;24.41;99816.03;4974430;28;20039;-80
2022/01/13 05:18:15;;;;;;;15.18;6.40;;;;;;;15.65;27.09;99807.09;4975072;28;20051;-80
2022/01/13 05:20:46;;;;;;;22.90;10.10;;;;;;;15.39;27.15;99797.28;4972697;28;20106;-80
2022/01/13 05:23:15;;;;;;;24.13;10.70;;;;;;;16.23;26.53;99803.38;4981861;28;20043;-80
2022/01/13 05:25:43;;;;;;;20.30;9.85;;;;;;;16.18;26.21;99789.72;4974616;28;20158;-80
2022/01/13 05:28:10;;;;;;;24.45;10.77;;;;;;;16.68;26.15;99803.47;4977193;28;20402;-80
2022/01/13 05:30:36;;;;;;;18.25;8.68;;;;;;;16.12;26.44;99801.38;4981840;28;20050;-80
2022/01/13 05:33:03;;;;;;;22.02;9.20;;;;;;;16.43;26.24;99808.06;4985407;28;20576;-80
2022/01/13 05:35:29;;;;;;;26.60;11.27;;;;;;;16.41;25.88;99793.75;4985791;28;20034;-80
2022/01/13 05:37:55;;;;;;;31.33;13.43;;;;;;;15.39;27.73;99802.81;4977760;28;20045;-80
2022/01/13 05:40:22;;;;;;;27.65;12.63;;;;;;;16.27;26.53;99806.25;4972104;28;20038;-81
2022/01/13 05:42:49;;;;;;;21.48;10.40;;;;;;;17.60;25.29;99799.03;4969825;28;20046;-80
2022/01/13 05:45:17;;;;;;;22.40;10.88;;;;;;;17.63;24.54;99803.91;4972016;28;20062;-80
2022/01/13 05:47:44;;;;;;;21.42;10.50;;;;;;;17.66;24.73;99800.44;4972759;28;20130;-80
2022/01/13 05:50:13;;;;;;;16.73;7.85;;;;;;;17.27;25.10;99787.22;4972808;28;20027;-80
2022/01/13 05:52:39;;;;;;;21.00;10.30;;;;;;;17.82;24.40;99794.97;4974209;28;20065;-80
2022/01/13 05:55:06;;;;;;;18.20;8.43;;;;;;;17.63;24.75;99784.47;4973775;28;20030;-80
2022/01/13 05:57:32;;;;;;;19.20;8.38;;;;;;;17.09;25.13;99794.97;4973987;28;20039;-81
2022/01/13 05:59:59;;;;;;;20.83;8.45;;;;;;;18.55;23.72;99792.75;4975859;28;20027;-81
2022/01/13 06:02:25;;;;;;;17.33;7.78;;;;;;;19.02;22.67;99784.47;4973991;28;20125;-81
2022/01/13 06:04:51;;;;;;;19.80;9.23;;;;;;;18.74;23.11;99784.53;4969947;28;20063;-81
2022/01/13 06:07:17;;;;;;;14.30;7.35;;;;;;;17.99;24.45;99774.44;4975040;28;20043;-79
2022/01/13 06:09:43;;;;;;;19.27;8.77;;;;;;;17.40;25.23;99793.59;4974163;28;20505;-80
2022/01/13 06:12:10;;;;;;;20.73;9.13;;;;;;;16.18;26.86;99789.72;4973412;28;20038;-80
2022/01/13 06:14:36;;;;;;;20.48;8.40;;;;;;;15.83;27.37;99802.22;4971868;28;20031;-80
2022/01/13 06:17:02;;;;;;;19.42;8.93;;;;;;;16.83;26.15;99793.66;4968555;28;20125;-80
2022/01/13 06:19:28;;;;;;;17.15;7.50;;;;;;;17.08;25.64;99795.31;4970703;28;20058;-80
2022/01/13 06:21:54;;;;;;;27.27;12.50;;;;;;;17.62;24.96;99802.28;4960542;28;20490;-80
2022/01/13 06:24:20;;;;;;;17.70;8.18;;;;;;;18.36;23.83;99806.50;4974158;28;20031;-81
2022/01/13 06:26:46;;;;;;;17.30;7.95;;;;;;;19.04;23.01;99802.41;4966457;28;20106;-82
2022/01/13 06:29:12;;;;;;;16.17;8.18;;;;;;;19.02;23.01;99799.19;4973614;28;20038;-80
2022/01/13 06:31:39;;;;;;;16.00;7.40;;;;;;;18.30;23.75;99803.16;4973160;28;20030;-82
2022/01/13 06:34:05;;;;;;;18.00;9.65;;;;;;;18.04;24.01;99793.63;4961371;28;20043;-80
2022/01/13 06:36:31;;;;;;;23.48;11.60;;;;;;;18.51;23.47;99798.22;4974555;28;20042;-79
2022/01/13 06:38:58;;;;;;;21.00;9.40;;;;;;;19.43;22.26;99786.72;4975713;28;20031;-79
2022/01/13 06:41:25;;;;;;;24.95;11.85;;;;;;;17.54;24.46;99778.22;4976073;28;20046;-80
2022/01/13 06:43:51;;;;;;;21.38;10.25;;;;;;;19.38;22.61;99778.63;4972919;28;20049;-80
2022/01/13 06:46:17;;;;;;;18.60;9.48;;;;;;;18.76;23.17;99792.53;4975759;28;20038;-80
2022/01/13 06:48:45;;;;;;;25.83;8.38;;;;;;;18.19;24.05;99788.13;4975648;28;20070;-80
2022/01/13 06:51:11;;;;;;;27.58;11.20;;;;;;;18.29;23.85;99801.53;4973522;28;20035;-81
2022/01/13 06:53:37;;;;;;;18.67;9.13;;;;;;;16.73;25.57;99799.66;4973217;28;20533;-80
2022/01/13 06:56:04;;;;;;;23.48;11.88;;;;;;;17.35;25.00;99791.84;4975835;28;20042;-80
2022/01/13 06:58:30;;;;;;;24.42;12.48;;;;;;;17.04;25.44;99805.47;4970712;28;20042;-81
2022/01/13 07:00:56;;;;;;;16.60;8.70;;;;;;;18.32;23.76;99820.28;4970336;28;20035;-81
2022/01/13 07:03:22;;;;;;;20.40;9.70;;;;;;;18.67;23.35;99811.38;4971888;28;20045;-81
2022/01/13 07:05:48;;;;;;;15.80;7.97;;;;;;;19.36;22.33;99797.69;4973199;28;20031;-81
2022/01/13 07:08:15;;;;;;;19.95;8.65;;;;;;;18.60;23.03;99814.75;4973537;28;20050;-81
2022/01/13 07:10:41;;;;;;;16.02;8.10;;;;;;;19.66;22.00;99803.56;4973847;28;20031;-81
2022/01/13 07:13:07;;;;;;;19.48;9.13;;;;;;;18.45;23.05;99808.00;4972414;28;20497;-81
2022/01/13 07:15:33;;;;;;;14.88;8.32;;;;;;;19.21;22.18;99799.28;4980189;28;20539;-82
2022/01/13 07:18:00;;;;;;;20.60;9.18;;;;;;;18.77;22.53;99774.66;4973607;28;20050;-81
2022/01/13 07:20:28;;;;;;;15.60;8.45;;;;;;;19.55;21.96;99778.25;4970548;28;20141;-81
2022/01/13 07:22:54;;;;;;;14.18;7.53;;;;;;;17.88;24.00;99782.44;4975477;28;20050;-82
2022/01/13 07:25:20;;;;;;;18.20;9.10;;;;;;;17.04;24.97;99792.41;4970339;28;20117;-81
2022/01/13 07:27:46;;;;;;;21.58;9.57;;;;;;;17.23;25.11;99791.84;4969427;28;20030;-81
2022/01/13 07:30:12;;;;;;;17.65;8.20;;;;;;;18.02;24.15;99793.97;4970775;28;20042;-81
2022/01/13 07:32:39;;;;;;;23.02;9.43;;;;;;;18.32;23.46;99802.81;4979028;28;20039;-81
2022/01/13 07:35:07;;;;;;;17.38;8.77;;;;;;;17.78;24.03;99805.16;4973435;28;20060;-81
2022/01/13 07:37:33;;;;;;;18.08;8.80;;;;;;;17.46;24.55;99804.09;4970295;28;20053;-81
2022/01/13 07:39:59;;;;;;;18.77;8.48;;;;;;;18.42;23.28;99800.31;4974464;28;20042;-82
2022/01/13 07:42:26;;;;;;;17.27;8.30;;;;;;;19.92;21.38;99795.41;4977181;28;20035;-82
2022/01/13 07:44:53;;;;;;;14.25;7.20;;;;;;;20.35;21.01;99786.78;4971377;28;20475;-82
2022/01/13 07:47:19;;;;;;;14.88;7.40;;;;;;;20.20;21.00;99793.25;4968748;28;20057;-81
2022/01/13 07:49:45;;;;;;;16.13;7.22;;;;;;;20.46;20.71;99790.63;4973305;28;20390;-82
2022/01/13 07:52:11;;;;;;;12.35;6.38;;;;;;;20.43;20.54;99799.72;4966398;28;20489;-83
2022/01/13 07:54:37;;;;;;;14.27;7.88;;;;;;;20.68;20.32;99803.81;4972280;28;20027;-84
2022/01/13 07:57:03;;;;;;;14.88;8.00;;;;;;;18.77;22.08;99785.78;4972686;28;20092;-84
2022/01/13 07:59:30;;;;;;;14.93;6.72;;;;;;;19.63;21.59;99784.78;4977474;28;20038;-84
2022/01/13 08:01:58;;;;;;;14.70;6.35;;;;;;;19.93;21.25;99772.75;4971659;28;20037;-84
2022/01/13 08:04:24;;;;;;;15.68;7.75;;;;;;;19.98;21.20;99768.84;4973776;28;20169;-84
2022/01/13 08:06:50;;;;;;;17.48;6.93;;;;;;;20.08;21.31;99750.75;4969130;28;20545;-81
2022/01/13 08:09:16;;;;;;;13.30;7.25;;;;;;;20.42;20.70;99747.09;4970594;28;20067;-81
2022/01/13 08:11:44;;;;;;;14.57;7.60;;;;;;;21.26;19.93;99723.47;4975074;28;20109;-82
2022/01/13 08:14:10;;;;;;;16.70;7.65;;;;;;;21.00;20.12;99715.06;4972240;28;20154;-82
2022/01/13 08:16:40;;;;;;;12.77;6.32;;;;;;;21.83;19.31;99708.31;4971658;28;20398;-82
2022/01/13 08:21:51;;;;;;;13.15;6.60;;;;;;;21.03;20.15;99708.69;4968606;28;20422;-81
2022/01/13 08:24:17;;;;;;;13.65;6.43;;;;;;;21.70;19.50;99709.75;4974336;28;20031;-82
2022/01/13 08:26:44;;;;;;;15.45;6.47;;;;;;;21.10;20.06;99703.25;4968023;28;20074;-81
2022/01/13 08:29:10;;;;;;;12.13;5.78;;;;;;;21.03;20.31;99703.13;4973850;28;20031;-81
2022/01/13 08:31:36;;;;;;;11.18;6.15;;;;;;;20.62;20.70;99701.22;4969357;28;20082;-82
2022/01/13 08:34:02;;;;;;;10.68;6.15;;;;;;;21.99;19.42;99708.16;4970781;28;20031;-82
2022/01/13 08:36:28;;;;;;;10.35;5.78;;;;;;;21.87;19.09;99716.78;4972712;28;20034;-81
2022/01/13 08:38:54;;;;;;;12.30;6.47;;;;;;;21.61;19.48;99725.19;4971905;28;20094;-81
2022/01/13 08:41:20;;;;;;;16.23;8.18;;;;;;;22.05;19.31;99723.44;4974792;28;20038;-81
2022/01/13 08:43:46;;;;;;;12.98;6.65;;;;;;;22.05;19.47;99715.03;4972354;28;20098;-82
2022/01/13 08:46:12;;;;;;;11.45;5.45;;;;;;;22.90;18.54;99704.72;4977117;28;20502;-81
2022/01/13 08:48:38;;;;;;;11.98;6.00;;;;;;;23.11;18.28;99707.72;4973173;28;20114;-82
2022/01/13 08:51:04;;;;;;;11.90;5.32;;;;;;;21.92;19.29;99708.88;4977763;28;20097;-81
2022/01/13 08:53:30;;;;;;;12.20;6.28;;;;;;;22.30;18.63;99709.72;4959162;28;20418;-81
2022/01/13 08:55:58;;;;;;;9.20;5.63;;;;;;;22.22;19.22;99713.63;4968817;28;20047;-81
2022/01/13 08:58:24;;;;;;;10.85;5.10;;;;;;;22.51;18.63;99712.75;4974347;28;20030;-81
2022/01/13 09:00:53;;;;;;;10.85;6.47;;;;;;;22.51;18.79;99710.75;4974466;28;20035;-81
2022/01/13 09:03:19;;;;;;;13.43;6.50;;;;;;;22.29;18.65;99710.88;4977838;28;20038;-81
2022/01/13 09:05:45;;;;;;;12.88;6.35;;;;;;;21.90;19.05;99705.66;4973784;28;20499;-81
2022/01/13 09:08:12;;;;;;;13.02;6.05;;;;;;;22.99;18.18;99706.03;4955805;28;20393;-81
2022/01/13 09:10:41;;;;;;;10.75;6.35;;;;;;;22.52;18.50;99687.16;4975425;28;20038;-81
2022/01/13 09:13:11;;;;;;;10.85;6.03;;;;;;;23.43;17.76;99677.97;4973656;28;20542;-81
2022/01/13 09:15:43;;;;;;;12.18;6.45;;;;;;;23.16;17.87;99679.34;4974736;28;20027;-81
2022/01/13 09:18:14;;;;;;;12.73;6.40;;;;;;;23.55;17.51;99674.81;4975001;28;20035;-80
2022/01/13 09:20:41;;;;;;;10.43;5.50;;;;;;;24.16;17.13;99673.09;4974990;28;20098;-81
2022/01/13 09:23:09;;;;;;;12.30;5.80;;;;;;;24.56;16.69;99673.59;4973042;28;20038;-81
2022/01/13 09:25:35;;;;;;;12.45;6.03;;;;;;;24.19;17.04;99670.31;4969458;28;20035;-80
2022/01/13 09:28:04;;;;;;;8.65;4.82;;;;;;;24.42;17.06;99667.97;4972818;28;20039;-81
2022/01/13 09:30:34;;;;;;;11.63;6.10;;;;;;;23.76;17.15;99665.69;4956809;28;20038;-80
2022/01/13 09:33:00;;;;;;;13.60;5.50;;;;;;;22.69;18.18;99680.97;4956642;28;20042;-80
2022/01/13 09:35:26;;;;;;;10.15;5.05;;;;;;;22.76;18.26;99676.59;4982109;28;20041;-81
2022/01/13 09:37:52;;;;;;;10.38;5.55;;;;;;;23.34;17.90;99671.84;4975104;28;20061;-80
2022/01/13 09:40:18;;;;;;;12.13;6.05;;;;;;;22.94;17.69;99677.56;4974595;28;20049;-80
2022/01/13 09:42:46;;;;;;;13.65;6.97;;;;;;;21.78;19.07;99682.69;4974325;28;20070;-80
2022/01/13 09:45:15;;;;;;;10.23;6.28;;;;;;;21.59;19.73;99686.44;4979048;28;20478;-81
2022/01/13 09:47:43;;;;;;;14.73;6.63;;;;;;;21.15;19.68;99686.19;4975625;28;20438;-81
2022/01/13 09:50:13;;;;;;;14.05;6.97;;;;;;;21.41;19.26;99685.38;4974828;28;20585;-81
2022/01/13 09:52:40;;;;;;;14.20;8.27;;;;;;;21.32;19.62;99665.28;4980963;28;20034;-81
2022/01/13 09:55:09;;;;;;;12.98;6.65;;;;;;;20.86;19.95;99655.38;4971225;28;20041;-80
2022/01/13 09:57:35;;;;;;;13.68;6.60;;;;;;;21.00;20.09;99669.56;4975913;28;20539;-81
2022/01/13 10:00:02;;;;;;;14.55;7.25;;;;;;;21.39;20.01;99667.38;4974247;28;20378;-81
2022/01/13 10:02:29;;;;;;;13.52;6.97;;;;;;;21.28;20.06;99659.63;4973568;28;20035;-80
2022/01/13 10:04:56;;;;;;;11.70;6.15;;;;;;;20.97;20.71;99654.38;4976051;28;20068;-81
2022/01/13 10:07:31;;;;;;;15.98;8.57;;;;;;;19.69;21.57;99652.38;4974309;28;20038;-81
2022/01/13 10:10:00;;;;;;;15.68;6.47;;;;;;;20.17;21.62;99668.47;4975427;28;20577;-80
2022/01/13 10:12:29;;;;;;;18.50;8.35;;;;;;;20.41;20.84;99662.59;4981158;28;20205;-80
2022/01/13 10:17:26;;;;;;;;;;;;;;;21.40;19.63;99638.28;4972749;28;20122;-81
2022/01/13 10:19:56;;;;;;;15.88;7.97;;;;;;;20.91;20.12;99641.09;4976733;28;20052;-80
2022/01/13 10:22:31;;;;;;;15.70;7.80;;;;;;;21.58;19.97;99644.88;4975053;28;20106;-81
2022/01/13 10:24:58;;;;;;;21.00;10.30;;;;;;;21.09;20.29;99650.59;4976214;28;20032;-81
2022/01/13 10:27:33;;;;;;;18.70;8.65;;;;;;;20.82;20.70;99655.31;4978059;28;20367;-81
2022/01/13 10:30:07;;;;;;;21.13;10.05;;;;;;;20.26;21.15;99645.94;4974458;28;20477;-81
2022/01/13 10:32:33;;;;;;;17.50;9.50;;;;;;;20.71;20.61;99656.31;4973409;28;20047;-81
2022/01/13 10:35:12;;;;;;;16.90;8.38;;;;;;;20.19;21.40;99641.03;4980954;28;20383;-80
2022/01/13 10:37:40;;;;;;;27.77;10.27;;;;;;;19.75;21.70;99648.94;4971410;28;20039;-81
2022/01/13 10:40:09;;;;;;;20.10;10.68;;;;;;;20.08;21.59;99642.00;4966717;28;20023;-81
2022/01/13 10:45:09;;;;;;;22.65;10.88;;;;;;;20.82;21.02;99624.59;4970236;28;20182;-81
2022/01/13 10:47:36;;;;;;;25.85;12.93;;;;;;;21.11;20.27;99615.53;4974087;28;20088;-80
2022/01/13 10:50:11;;;;;;;25.80;11.63;;;;;;;21.39;20.20;99609.50;4969619;28;20035;-81
2022/01/13 10:52:38;;;;;;;20.70;10.38;;;;;;;21.02;20.19;99606.56;4975399;28;20031;-81
2022/01/13 10:55:20;;;;;;;29.02;12.98;;;;;;;21.48;19.86;99610.03;4974947;28;20041;-81
2022/01/13 10:57:48;;;;;;;26.45;12.90;;;;;;;20.56;20.78;99593.91;4975468;28;20129;-80
2022/01/13 11:00:17;;;;;;;20.30;10.50;;;;;;;19.67;21.76;99594.25;4973458;28;20482;-80
2022/01/13 11:02:48;;;;;;;19.77;10.63;;;;;;;20.38;21.25;99607.53;4973907;28;20042;-80
2022/01/13 11:05:14;;;;;;;23.20;11.02;;;;;;;21.31;20.10;99607.78;4973373;28;20568;-80
2022/01/13 11:07:41;;;;;;;22.05;10.98;;;;;;;20.42;20.83;99588.09;4987804;28;20045;-80
2022/01/13 11:10:08;;;;;;;24.23;11.30;;;;;;;19.73;21.69;99584.41;4975012;28;20026;-80
2022/01/13 11:12:38;;;;;;;32.00;14.07;;;;;;;20.49;20.72;99593.78;4970833;28;20449;-81
2022/01/13 11:15:08;;;;;;;19.40;9.52;;;;;;;19.82;21.99;99592.53;4960206;28;20034;-80
2022/01/13 11:17:38;;;;;;;25.20;11.20;;;;;;;19.55;21.74;99610.28;4971605;28;20043;-80
2022/01/13 11:20:06;;;;;;;21.85;10.82;;;;;;;19.68;21.54;99600.59;4972334;28;20397;-80
2022/01/13 11:22:36;;;;;;;19.33;11.25;;;;;;;19.23;22.28;99595.63;4969409;28;20027;-80
2022/01/13 11:25:07;;;;;;;24.00;11.23;;;;;;;20.50;20.81;99573.06;4970061;28;20042;-80
2022/01/13 11:27:34;;;;;;;20.50;10.27;;;;;;;19.91;21.56;99566.03;4978560;28;20421;-81
2022/01/13 11:30:01;;;;;;;20.13;9.90;;;;;;;20.42;21.11;99566.53;4981402;28;20038;-80
2022/01/13 11:32:27;;;;;;;22.17;10.10;;;;;;;20.66;20.80;99559.75;4969704;28;20073;-80
2022/01/13 11:34:58;;;;;;;23.38;10.18;;;;;;;21.25;20.10;99554.25;4975277;28;20406;-79
2022/01/13 11:37:31;;;;;;;25.77;10.07;;;;;;;20.48;20.99;99553.91;4973707;28;20034;-80
2022/01/13 11:39:58;;;;;;;21.95;9.95;;;;;;;19.93;21.85;99555.31;4956314;28;20504;-80
2022/01/13 11:42:24;;;;;;;18.23;8.63;;;;;;;20.91;20.86;99555.34;4968614;28;20046;-79
2022/01/13 11:45:15;;;;;;;19.10;8.32;;;;;;;21.77;19.83;99555.28;4969210;28;20023;-79
2022/01/13 11:47:41;;;;;;;17.33;7.85;;;;;;;22.57;19.08;99546.84;4971053;28;20430;-81
2022/01/13 11:50:41;;;;;;;19.15;8.07;;;;;;;21.75;19.88;99547.25;4971545;28;20085;-80